createdAt,value
2022-10-31T00:01:24.497Z,12.20
2022-10-31T00:03:52.975Z,12.00
2022-10-31T00:06:21.234Z,11.90
2022-10-31T00:08:53.725Z,11.60
2022-10-31T00:11:23.903Z,11.50
2022-10-31T00:13:52.332Z,11.50
2022-10-31T00:16:22.270Z,11.50
2022-10-31T00:18:51.482Z,11.60
2022-10-31T00:21:20.018Z,11.70
2022-10-31T00:23:48.772Z,11.80
2022-10-31T00:26:18.059Z,11.90
2022-10-31T00:28:47.857Z,11.90
2022-10-31T00:31:16.614Z,11.90
2022-10-31T00:33:45.380Z,11.80
2022-10-31T00:36:15.206Z,11.80
2022-10-31T00:38:43.546Z,11.80
2022-10-31T00:41:13.353Z,11.80
2022-10-31T00:43:41.617Z,11.80
2022-10-31T00:46:11.221Z,11.80
2022-10-31T00:48:39.559Z,11.70
2022-10-31T00:51:08.454Z,11.70
2022-10-31T00:53:37.173Z,11.60
2022-10-31T00:56:06.362Z,11.60
2022-10-31T00:58:34.618Z,11.50
2022-10-31T01:01:06.043Z,11.40
2022-10-31T01:03:36.150Z,11.40
2022-10-31T01:06:06.848Z,11.30
2022-10-31T01:08:35.700Z,11.20
2022-10-31T01:11:08.134Z,11.20
2022-10-31T01:13:36.857Z,11.10
2022-10-31T01:16:07.162Z,11.00
2022-10-31T01:18:36.901Z,10.80
2022-10-31T01:21:08.014Z,10.70
2022-10-31T01:23:36.674Z,10.60
2022-10-31T01:26:08.238Z,10.40
2022-10-31T01:28:37.827Z,10.30
2022-10-31T01:31:08.384Z,10.30
2022-10-31T01:33:38.976Z,10.30
2022-10-31T01:36:15.518Z,10.20
2022-10-31T01:38:43.748Z,10.10
2022-10-31T01:41:13.300Z,10.00
2022-10-31T01:43:46.586Z,10.10
2022-10-31T01:46:15.694Z,10.20
2022-10-31T01:48:45.312Z,10.20
2022-10-31T01:51:15.954Z,10.20
2022-10-31T01:53:46.152Z,10.30
2022-10-31T01:56:18.686Z,10.40
2022-10-31T01:58:48.539Z,10.60
2022-10-31T02:01:18.342Z,10.70
2022-10-31T02:03:49.750Z,10.80
2022-10-31T02:06:29.637Z,10.90
2022-10-31T02:09:00.405Z,11.00
2022-10-31T02:11:30.552Z,10.90
2022-10-31T02:14:02.631Z,10.80
2022-10-31T02:16:31.271Z,10.90
2022-10-31T02:19:00.971Z,10.80
2022-10-31T02:21:40.214Z,10.90
2022-10-31T02:24:43.066Z,10.90
2022-10-31T02:27:23.692Z,10.80
2022-10-31T02:30:08.249Z,10.80
2022-10-31T02:32:50.983Z,10.60
2022-10-31T02:35:33.727Z,10.40
2022-10-31T02:38:09.444Z,10.30
2022-10-31T02:40:46.579Z,10.10
2022-10-31T02:43:20.740Z,9.90
2022-10-31T02:45:56.647Z,9.80
2022-10-31T02:48:32.512Z,9.70
2022-10-31T02:51:03.712Z,9.70
2022-10-31T02:53:35.509Z,9.70
2022-10-31T02:56:08.943Z,9.80
2022-10-31T02:58:42.348Z,9.80
2022-10-31T03:01:40.413Z,9.80
2022-10-31T03:04:25.151Z,9.70
2022-10-31T03:07:02.529Z,9.70
2022-10-31T03:09:40.142Z,9.70
2022-10-31T03:12:13.070Z,9.80
2022-10-31T03:14:45.303Z,9.80
2022-10-31T03:17:21.285Z,9.80
2022-10-31T03:19:55.393Z,9.80
2022-10-31T03:22:25.848Z,9.80
2022-10-31T03:24:55.804Z,9.80
2022-10-31T03:27:27.693Z,9.80
2022-10-31T03:29:59.537Z,9.80
2022-10-31T03:32:33.434Z,9.70
2022-10-31T03:35:06.714Z,9.70
2022-10-31T03:37:36.261Z,9.60
2022-10-31T03:40:07.187Z,9.60
2022-10-31T03:42:39.489Z,9.70
2022-10-31T03:45:13.558Z,9.70
2022-10-31T03:47:46.288Z,9.70
2022-10-31T03:50:17.522Z,9.70
2022-10-31T03:52:53.885Z,9.70
2022-10-31T03:55:26.464Z,9.70
2022-10-31T03:58:00.406Z,9.70
2022-10-31T04:00:29.402Z,9.70
2022-10-31T04:03:02.622Z,9.60
2022-10-31T04:05:33.365Z,9.50
2022-10-31T04:08:04.286Z,9.20
2022-10-31T04:10:33.688Z,9.10
2022-10-31T04:13:07.831Z,9.10
2022-10-31T04:15:39.091Z,9.10
2022-10-31T04:18:07.988Z,9.00
2022-10-31T04:20:43.289Z,9.00
2022-10-31T04:23:20.204Z,8.80
2022-10-31T04:25:48.550Z,8.80
2022-10-31T04:28:16.906Z,8.80
2022-10-31T04:30:45.471Z,8.70
2022-10-31T04:33:13.894Z,8.70
2022-10-31T04:35:43.948Z,8.80
2022-10-31T04:38:12.418Z,8.80
2022-10-31T04:40:40.621Z,8.80
2022-10-31T04:43:09.123Z,8.80
2022-10-31T04:45:37.450Z,8.90
2022-10-31T04:48:06.194Z,8.80
2022-10-31T04:50:34.593Z,8.80
2022-10-31T04:53:04.235Z,8.70
2022-10-31T04:55:32.529Z,8.60
2022-10-31T04:58:01.216Z,8.60
2022-10-31T05:00:29.766Z,8.70
2022-10-31T05:02:59.898Z,8.70
2022-10-31T05:05:30.422Z,8.50
2022-10-31T05:07:58.880Z,8.40
2022-10-31T05:10:30.513Z,8.40
2022-10-31T05:13:01.771Z,8.50
2022-10-31T05:15:31.032Z,8.50
2022-10-31T05:17:59.856Z,8.50
2022-10-31T05:20:29.665Z,8.40
2022-10-31T05:22:59.462Z,8.30
2022-10-31T05:25:30.762Z,8.40
2022-10-31T05:28:01.577Z,8.50
2022-10-31T05:30:32.655Z,8.60
2022-10-31T05:33:01.629Z,8.60
2022-10-31T05:35:32.776Z,8.60
2022-10-31T05:38:01.291Z,8.50
2022-10-31T05:40:31.085Z,8.50
2022-10-31T05:43:00.551Z,8.50
2022-10-31T05:45:29.132Z,8.50
2022-10-31T05:47:59.786Z,8.40
2022-10-31T05:50:30.243Z,8.30
2022-10-31T05:53:01.088Z,8.20
2022-10-31T05:55:31.280Z,8.30
2022-10-31T05:58:00.108Z,8.20
2022-10-31T06:00:29.330Z,8.20
2022-10-31T06:03:01.697Z,8.20
2022-10-31T06:05:30.600Z,8.30
2022-10-31T06:07:59.779Z,8.30
2022-10-31T06:10:30.230Z,8.20
2022-10-31T06:12:59.209Z,8.10
2022-10-31T06:15:27.672Z,8.00
2022-10-31T06:18:03.509Z,8.00
2022-10-31T06:20:32.576Z,7.90
2022-10-31T06:23:01.352Z,8.00
2022-10-31T06:25:31.309Z,8.00
2022-10-31T06:27:59.643Z,7.90
2022-10-31T06:30:28.128Z,7.90
2022-10-31T06:32:56.503Z,7.80
2022-10-31T06:35:24.842Z,7.80
2022-10-31T06:37:54.212Z,7.90
2022-10-31T06:40:22.579Z,8.10
2022-10-31T06:42:59.757Z,8.20
2022-10-31T06:45:28.411Z,8.30
2022-10-31T06:48:16.039Z,8.30
2022-10-31T06:50:45.743Z,8.20
2022-10-31T06:53:15.199Z,8.20
2022-10-31T06:55:43.935Z,8.20
2022-10-31T06:58:13.708Z,8.20
2022-10-31T07:00:42.137Z,8.20
2022-10-31T07:03:13.090Z,8.20
2022-10-31T07:05:42.335Z,8.30
2022-10-31T07:08:12.373Z,8.50
2022-10-31T07:10:42.359Z,8.60
2022-10-31T07:13:15.146Z,8.70
2022-10-31T07:15:44.621Z,8.90
2022-10-31T07:18:14.545Z,9.00
2022-10-31T07:20:42.790Z,9.20
2022-10-31T07:23:12.614Z,9.40
2022-10-31T07:25:41.457Z,9.50
2022-10-31T07:28:10.063Z,9.60
2022-10-31T07:30:40.239Z,9.70
2022-10-31T07:33:08.741Z,9.90
2022-10-31T07:35:37.084Z,9.90
2022-10-31T07:38:12.820Z,10.00
2022-10-31T07:51:46.512Z,10.50
2022-10-31T07:58:01.202Z,10.80
2022-10-31T08:00:30.644Z,10.90
2022-10-31T08:03:01.954Z,11.00
2022-10-31T08:05:30.907Z,11.10
2022-10-31T08:10:31.703Z,11.30
2022-10-31T08:13:03.587Z,11.30
2022-10-31T08:15:32.339Z,11.20
2022-10-31T08:18:00.782Z,11.20
2022-10-31T08:20:29.279Z,11.20
2022-10-31T08:23:01.064Z,11.10
2022-10-31T08:25:35.436Z,11.20
2022-10-31T08:28:07.626Z,11.20
2022-10-31T08:30:38.237Z,11.20
2022-10-31T08:33:08.771Z,11.50
2022-10-31T08:35:36.939Z,11.60
2022-10-31T08:38:05.368Z,11.80
2022-10-31T08:40:36.119Z,11.80
2022-10-31T08:43:07.948Z,11.80
2022-10-31T08:45:36.825Z,11.90
2022-10-31T08:48:07.030Z,12.00
2022-10-31T08:50:37.161Z,12.10
2022-10-31T08:53:06.879Z,12.20
2022-10-31T08:55:38.928Z,12.30
2022-10-31T08:58:09.734Z,12.40
2022-10-31T09:00:38.466Z,12.70
2022-10-31T09:03:08.400Z,12.70
2022-10-31T09:05:36.845Z,12.70
2022-10-31T09:08:07.370Z,12.70
2022-10-31T09:10:40.158Z,12.70
2022-10-31T09:13:11.415Z,12.70
2022-10-31T09:15:42.136Z,12.70
2022-10-31T09:18:11.911Z,12.60
2022-10-31T09:20:41.521Z,12.60
2022-10-31T09:23:12.315Z,12.70
2022-10-31T09:25:47.720Z,12.70
2022-10-31T09:28:20.795Z,12.70
2022-10-31T09:30:49.903Z,12.80
2022-10-31T09:33:18.817Z,12.90
2022-10-31T09:35:47.338Z,12.90
2022-10-31T09:38:20.124Z,12.90
2022-10-31T09:40:57.794Z,13.00
2022-10-31T09:43:34.297Z,13.10
2022-10-31T09:46:10.033Z,13.10
2022-10-31T09:48:56.494Z,13.20
2022-10-31T09:51:30.341Z,13.20
2022-10-31T09:54:00.258Z,13.30
2022-10-31T09:56:32.803Z,13.40
2022-10-31T09:59:03.542Z,13.50
2022-10-31T10:01:40.067Z,13.60
2022-10-31T10:04:25.947Z,13.60
2022-10-31T10:06:54.734Z,13.80
2022-10-31T10:09:27.235Z,14.00
2022-10-31T10:12:09.261Z,14.10
2022-10-31T10:14:49.500Z,14.10
2022-10-31T10:17:34.880Z,14.20
2022-10-31T10:20:20.580Z,14.30
2022-10-31T10:22:56.701Z,14.40
2022-10-31T10:25:27.761Z,14.50
2022-10-31T10:28:11.053Z,14.70
2022-10-31T10:30:43.828Z,14.70
2022-10-31T10:33:15.690Z,14.80
2022-10-31T10:35:49.351Z,15.00
2022-10-31T10:38:24.255Z,15.10
2022-10-31T10:40:54.841Z,15.10
2022-10-31T10:43:28.345Z,15.10
2022-10-31T10:46:24.997Z,15.10
2022-10-31T10:49:00.225Z,15.20
2022-10-31T10:54:42.102Z,15.40
2022-10-31T10:57:26.054Z,15.60
2022-10-31T10:59:55.653Z,16.00
2022-10-31T11:02:27.249Z,16.40
2022-10-31T11:04:58.564Z,16.80
2022-10-31T11:07:27.802Z,16.90
2022-10-31T11:10:06.373Z,17.10
2022-10-31T11:12:35.808Z,17.10
2022-10-31T11:15:22.199Z,16.80
2022-10-31T11:17:52.902Z,16.70
2022-10-31T11:20:33.484Z,16.60
2022-10-31T11:23:15.785Z,16.60
2022-10-31T11:25:51.711Z,16.40
2022-10-31T11:28:20.132Z,16.30
2022-10-31T11:30:53.582Z,16.30
2022-10-31T11:33:26.692Z,16.40
2022-10-31T11:35:58.122Z,16.50
2022-10-31T11:38:33.723Z,16.50
2022-10-31T11:41:18.128Z,16.40
2022-10-31T11:43:51.657Z,16.30
2022-10-31T11:46:27.911Z,16.20
2022-10-31T11:48:57.981Z,16.30
2022-10-31T11:51:32.533Z,16.40
2022-10-31T11:54:03.582Z,16.40
2022-10-31T11:56:41.452Z,16.30
2022-10-31T11:59:24.673Z,16.30
2022-10-31T12:01:56.537Z,16.30
2022-10-31T12:04:37.875Z,16.40
2022-10-31T12:07:06.211Z,16.50
2022-10-31T12:09:39.459Z,16.70
2022-10-31T12:12:49.454Z,16.80
2022-10-31T12:15:31.402Z,16.80
2022-10-31T12:18:19.421Z,16.80
2022-10-31T12:21:00.358Z,16.90
2022-10-31T12:23:37.086Z,16.90
2022-10-31T12:26:17.204Z,16.80
2022-10-31T12:29:03.243Z,16.80
2022-10-31T12:31:49.134Z,16.80
2022-10-31T12:34:49.006Z,16.90
2022-10-31T12:37:29.172Z,16.90
2022-10-31T12:40:17.788Z,17.00
2022-10-31T12:42:55.684Z,17.00
2022-10-31T12:45:49.558Z,17.00
2022-10-31T12:48:38.651Z,17.00
2022-10-31T12:51:14.296Z,17.00
2022-10-31T12:53:54.800Z,17.00
2022-10-31T12:56:40.091Z,16.90
2022-10-31T12:59:23.815Z,16.90
2022-10-31T13:01:57.970Z,16.90
2022-10-31T13:04:37.371Z,16.90
2022-10-31T13:07:11.938Z,16.90
2022-10-31T13:09:47.242Z,16.90
2022-10-31T13:12:20.248Z,16.90
2022-10-31T13:14:52.604Z,16.80
2022-10-31T13:17:26.516Z,16.80
2022-10-31T13:20:00.051Z,16.90
2022-10-31T13:22:36.653Z,17.00
2022-10-31T13:25:17.511Z,17.00
2022-10-31T13:27:51.488Z,16.90
2022-10-31T13:30:22.232Z,16.90
2022-10-31T13:32:55.453Z,16.80
2022-10-31T13:35:32.565Z,16.80
2022-10-31T13:38:12.358Z,16.80
2022-10-31T13:40:49.599Z,16.80
2022-10-31T13:43:28.946Z,16.80
2022-10-31T13:45:58.003Z,17.00
2022-10-31T13:48:40.079Z,17.50
2022-10-31T13:51:12.050Z,17.90
2022-10-31T13:53:45.851Z,17.90
2022-10-31T13:56:23.280Z,17.90
2022-10-31T13:59:07.673Z,17.80
2022-10-31T14:01:37.583Z,17.80
2022-10-31T14:04:14.535Z,17.70
2022-10-31T14:07:02.073Z,17.70
2022-10-31T14:09:36.017Z,17.70
2022-10-31T14:12:08.046Z,18.20
2022-10-31T14:14:45.901Z,18.30
2022-10-31T14:17:22.519Z,18.30
2022-10-31T14:20:20.632Z,18.20
2022-10-31T14:22:48.988Z,18.30
2022-10-31T14:25:31.521Z,18.30
2022-10-31T14:28:01.600Z,18.20
2022-10-31T14:30:32.430Z,18.00
2022-10-31T14:33:04.764Z,17.80
2022-10-31T14:35:48.957Z,17.60
2022-10-31T14:38:53.477Z,17.60
2022-10-31T14:41:39.940Z,17.40
2022-10-31T14:44:43.438Z,17.40
2022-10-31T14:47:21.033Z,17.30
2022-10-31T14:50:22.084Z,17.20
2022-10-31T14:52:54.473Z,17.30
2022-10-31T14:55:24.918Z,17.20
2022-10-31T14:57:57.904Z,17.10
2022-10-31T15:00:26.829Z,17.10
2022-10-31T15:03:05.302Z,17.00
2022-10-31T15:05:36.353Z,17.00
2022-10-31T15:08:04.967Z,17.00
2022-10-31T15:10:36.209Z,16.90
2022-10-31T15:13:19.873Z,17.00
2022-10-31T15:15:52.295Z,17.10
2022-10-31T15:18:27.048Z,17.00
2022-10-31T15:20:57.161Z,16.90
2022-10-31T15:23:28.508Z,16.80
2022-10-31T15:26:06.924Z,16.80
2022-10-31T15:28:36.516Z,16.70
2022-10-31T15:31:05.236Z,16.60
2022-10-31T15:33:48.345Z,16.50
2022-10-31T15:36:17.731Z,16.40
2022-10-31T15:38:46.045Z,16.40
2022-10-31T15:41:30.818Z,16.30
2022-10-31T15:44:05.518Z,16.20
2022-10-31T15:46:34.877Z,16.20
2022-10-31T15:49:03.378Z,16.30
2022-10-31T15:51:35.119Z,16.30
2022-10-31T15:54:03.702Z,16.30
2022-10-31T15:56:33.701Z,16.30
2022-10-31T15:59:04.105Z,16.20
2022-10-31T16:01:34.216Z,16.20
2022-10-31T16:04:06.258Z,16.10
2022-10-31T16:06:36.309Z,16.00
2022-10-31T16:09:06.264Z,15.90
2022-10-31T16:11:37.815Z,15.80
2022-10-31T16:14:18.487Z,15.80
2022-10-31T16:16:50.647Z,15.70
2022-10-31T16:19:23.678Z,15.60
2022-10-31T16:21:56.331Z,15.70
2022-10-31T16:24:29.962Z,15.70
2022-10-31T16:27:05.797Z,15.60
2022-10-31T16:29:43.565Z,15.60
2022-10-31T16:32:27.866Z,15.40
2022-10-31T16:35:18.516Z,15.30
2022-10-31T16:37:47.096Z,15.30
2022-10-31T16:40:16.644Z,15.40
2022-10-31T16:42:48.292Z,15.30
2022-10-31T16:45:20.252Z,15.20
2022-10-31T16:47:49.360Z,15.00
2022-10-31T16:50:23.448Z,14.90
2022-10-31T16:55:46.611Z,14.90
2022-10-31T16:58:21.221Z,14.90
2022-10-31T17:00:51.743Z,14.80
2022-10-31T17:03:20.075Z,14.80
2022-10-31T17:05:48.373Z,14.90
2022-10-31T17:08:17.104Z,14.90
2022-10-31T17:10:47.218Z,15.00
2022-10-31T17:13:20.741Z,15.10
2022-10-31T17:15:53.215Z,15.00
2022-10-31T17:18:27.096Z,15.00
2022-10-31T17:20:59.704Z,14.90
2022-10-31T17:23:29.323Z,14.90
2022-10-31T17:25:58.191Z,14.70
2022-10-31T17:28:26.859Z,14.60
2022-10-31T17:30:59.119Z,14.70
2022-10-31T17:33:27.892Z,14.90
2022-10-31T17:35:56.243Z,15.00
2022-10-31T17:38:24.609Z,15.00
2022-10-31T17:40:52.908Z,15.00
2022-10-31T17:43:21.160Z,15.10
2022-10-31T17:45:49.458Z,15.10
2022-10-31T17:48:19.040Z,15.20
2022-10-31T17:50:47.282Z,15.10
2022-10-31T17:53:15.537Z,15.20
2022-10-31T17:55:43.769Z,15.10
2022-10-31T17:58:13.830Z,15.00
2022-10-31T18:00:45.830Z,15.00
2022-10-31T18:03:18.478Z,14.90
2022-10-31T18:05:53.531Z,15.00
2022-10-31T18:08:25.399Z,15.00
2022-10-31T18:10:53.721Z,14.90
2022-10-31T18:13:22.095Z,15.00
2022-10-31T18:15:50.605Z,15.00
2022-10-31T18:18:20.330Z,15.20
2022-10-31T18:20:48.556Z,15.30
2022-10-31T18:23:16.816Z,15.50
2022-10-31T18:25:45.146Z,15.70
2022-10-31T18:28:13.343Z,15.80
2022-10-31T18:30:42.427Z,16.00
2022-10-31T18:33:10.683Z,16.10
2022-10-31T18:35:40.877Z,16.20
2022-10-31T18:38:09.827Z,16.20
2022-10-31T18:40:38.361Z,16.30
2022-10-31T18:43:07.160Z,16.30
2022-10-31T18:45:46.599Z,16.40
2022-10-31T18:48:17.299Z,16.50
2022-10-31T18:50:46.995Z,16.40
2022-10-31T18:53:15.238Z,16.40
2022-10-31T18:55:47.492Z,16.40
2022-10-31T18:58:18.658Z,16.40
2022-10-31T19:00:47.483Z,16.40
2022-10-31T19:03:16.114Z,16.40
2022-10-31T19:05:44.386Z,16.40
2022-10-31T19:08:14.014Z,16.50
2022-10-31T19:10:42.958Z,16.50
2022-10-31T19:13:11.208Z,16.50
2022-10-31T19:15:39.573Z,16.50
2022-10-31T19:18:07.930Z,16.50
2022-10-31T19:20:39.172Z,16.50
2022-10-31T19:23:07.744Z,16.50
2022-10-31T19:25:38.048Z,16.50
2022-10-31T19:28:06.670Z,16.50
2022-10-31T19:30:34.920Z,16.50
2022-10-31T19:33:03.264Z,16.50
2022-10-31T19:35:31.597Z,16.40
2022-10-31T19:38:00.208Z,16.40
2022-10-31T19:40:28.777Z,16.40
2022-10-31T19:43:00.184Z,16.40
2022-10-31T19:45:28.456Z,16.50
2022-10-31T19:47:56.755Z,16.50
2022-10-31T19:50:25.190Z,16.50
2022-10-31T19:52:53.423Z,16.50
2022-10-31T19:55:21.719Z,16.60
2022-10-31T19:58:01.435Z,16.60
2022-10-31T20:00:31.931Z,16.70
2022-10-31T20:03:00.939Z,16.70
2022-10-31T20:05:29.765Z,16.70
2022-10-31T20:07:58.135Z,16.80
2022-10-31T20:10:26.468Z,16.80
2022-10-31T20:12:54.728Z,16.80
2022-10-31T20:15:23.151Z,16.80
2022-10-31T20:17:52.809Z,16.90
2022-10-31T20:20:21.333Z,16.90
2022-10-31T20:22:50.688Z,16.90
2022-10-31T20:25:19.324Z,16.90
2022-10-31T20:27:47.736Z,17.00
2022-10-31T20:30:16.188Z,17.00
2022-10-31T20:32:49.015Z,17.10
2022-10-31T20:35:20.105Z,17.10
2022-10-31T20:37:48.357Z,17.00
2022-10-31T20:40:16.781Z,16.90
2022-10-31T20:42:45.070Z,16.80
2022-10-31T20:45:13.437Z,16.70
2022-10-31T20:47:41.742Z,16.60
2022-10-31T20:50:10.371Z,16.50
2022-10-31T20:52:40.635Z,16.50
2022-10-31T20:55:09.711Z,16.40
2022-10-31T20:57:38.117Z,16.40
2022-10-31T21:00:08.003Z,16.40
2022-10-31T21:02:36.325Z,16.40
2022-10-31T21:05:08.443Z,16.40
2022-10-31T21:07:36.856Z,16.40
2022-10-31T21:10:14.920Z,16.40
2022-10-31T21:12:44.884Z,16.30
2022-10-31T21:15:15.189Z,16.30
2022-10-31T21:17:43.894Z,16.40
2022-10-31T21:20:12.424Z,16.40
2022-10-31T21:22:40.895Z,16.40
2022-10-31T21:25:10.680Z,16.40
2022-10-31T21:27:38.992Z,16.50
2022-10-31T21:30:08.209Z,16.50
2022-10-31T21:32:36.546Z,16.60
2022-10-31T21:39:10.434Z,16.60
2022-10-31T21:42:46.586Z,16.50
2022-10-31T21:52:13.895Z,16.40
2022-10-31T21:54:42.103Z,16.40
2022-10-31T21:57:11.698Z,16.30
2022-10-31T21:59:41.361Z,16.30
2022-10-31T22:02:12.034Z,16.40
2022-10-31T22:04:41.300Z,16.50
2022-10-31T22:07:09.723Z,16.60
2022-10-31T22:09:38.903Z,16.70
2022-10-31T22:12:09.109Z,16.80
2022-10-31T22:14:38.709Z,16.90
2022-10-31T22:17:06.993Z,17.00
2022-10-31T22:19:35.385Z,17.00
2022-10-31T22:22:03.703Z,16.90
2022-10-31T22:24:31.957Z,16.90
2022-10-31T22:27:00.122Z,17.00
2022-10-31T22:29:28.891Z,17.00
2022-10-31T22:31:59.720Z,17.10
2022-10-31T22:34:28.985Z,17.00
2022-10-31T22:36:57.550Z,17.00
2022-10-31T22:39:25.773Z,17.00
2022-10-31T22:41:54.049Z,16.90
2022-10-31T22:44:22.359Z,17.00
2022-10-31T22:46:50.684Z,17.00
2022-10-31T22:49:20.408Z,17.00
2022-10-31T22:51:52.049Z,17.00
2022-10-31T22:54:20.444Z,17.10
2022-10-31T22:56:48.831Z,17.00
2022-10-31T22:59:18.046Z,17.10
2022-10-31T23:01:46.710Z,17.20
2022-10-31T23:04:16.261Z,17.20
2022-10-31T23:06:46.413Z,17.10
2022-10-31T23:09:16.419Z,17.10
2022-10-31T23:11:45.173Z,17.10
2022-10-31T23:14:18.590Z,17.10
2022-10-31T23:16:48.997Z,17.10
2022-10-31T23:19:19.454Z,17.20
2022-10-31T23:21:59.497Z,17.20
2022-10-31T23:24:30.702Z,17.20
2022-10-31T23:27:10.724Z,17.20
2022-10-31T23:29:43.301Z,17.20
2022-10-31T23:32:18.593Z,17.10
2022-10-31T23:34:47.809Z,17.10
2022-10-31T23:37:19.320Z,17.00
2022-10-31T23:39:48.792Z,16.90
2022-10-31T23:42:17.594Z,16.90
2022-10-31T23:44:46.874Z,16.80
2022-10-31T23:47:16.953Z,16.80
2022-10-31T23:49:45.150Z,16.90
2022-10-31T23:52:14.409Z,16.90
2022-10-31T23:54:44.331Z,17.10
2022-10-31T23:57:15.496Z,17.10
2022-10-31T23:59:44.056Z,17.20
